sensor_id;sensor_type;location;lat;lon;timestamp;P1;durP1;ratioP1;P2;durP2;ratioP2
77304;SDS011;66364;52.622;7.746;2023-04-29T00:00:28;40.57;;;36.20;;
77304;SDS011;66364;52.622;7.746;2023-04-29T00:02:29;39.50;;;35.20;;
77304;SDS011;66364;52.622;7.746;2023-04-29T00:04:30;42.13;;;37.17;;
77304;SDS011;66364;52.622;7.746;2023-04-29T00:06:32;37.95;;;33.48;;
77304;SDS011;66364;52.622;7.746;2023-04-29T00:08:33;37.57;;;33.47;;
77304;SDS011;66364;52.622;7.746;2023-04-29T00:10:34;38.78;;;34.58;;
77304;SDS011;66364;52.622;7.746;2023-04-29T00:12:36;38.70;;;34.67;;
77304;SDS011;66364;52.622;7.746;2023-04-29T00:14:40;38.80;;;33.60;;
77304;SDS011;66364;52.622;7.746;2023-04-29T00:16:41;39.40;;;35.05;;
77304;SDS011;66364;52.622;7.746;2023-04-29T00:18:44;41.95;;;32.93;;
77304;SDS011;66364;52.622;7.746;2023-04-29T00:20:45;41.10;;;34.77;;
77304;SDS011;66364;52.622;7.746;2023-04-29T00:22:46;41.10;;;33.08;;
77304;SDS011;66364;52.622;7.746;2023-04-29T00:24:49;38.48;;;32.73;;
77304;SDS011;66364;52.622;7.746;2023-04-29T00:26:51;36.50;;;32.60;;
77304;SDS011;66364;52.622;7.746;2023-04-29T00:28:54;42.95;;;34.80;;
77304;SDS011;66364;52.622;7.746;2023-04-29T00:30:55;35.92;;;31.80;;
77304;SDS011;66364;52.622;7.746;2023-04-29T00:32:57;41.70;;;34.70;;
77304;SDS011;66364;52.622;7.746;2023-04-29T00:34:58;39.33;;;32.95;;
77304;SDS011;66364;52.622;7.746;2023-04-29T00:37:01;36.00;;;32.13;;
77304;SDS011;66364;52.622;7.746;2023-04-29T00:39:03;36.70;;;32.80;;
77304;SDS011;66364;52.622;7.746;2023-04-29T00:41:04;38.77;;;33.80;;
77304;SDS011;66364;52.622;7.746;2023-04-29T00:43:05;39.98;;;34.05;;
77304;SDS011;66364;52.622;7.746;2023-04-29T00:45:07;41.65;;;34.60;;
77304;SDS011;66364;52.622;7.746;2023-04-29T00:47:09;37.45;;;33.38;;
77304;SDS011;66364;52.622;7.746;2023-04-29T00:49:10;39.73;;;33.60;;
77304;SDS011;66364;52.622;7.746;2023-04-29T00:51:14;39.40;;;32.80;;
77304;SDS011;66364;52.622;7.746;2023-04-29T00:53:17;43.80;;;35.10;;
77304;SDS011;66364;52.622;7.746;2023-04-29T00:55:18;43.25;;;35.00;;
77304;SDS011;66364;52.622;7.746;2023-04-29T00:57:20;41.20;;;35.45;;
77304;SDS011;66364;52.622;7.746;2023-04-29T00:59:22;38.55;;;33.65;;
77304;SDS011;66364;52.622;7.746;2023-04-29T01:01:23;40.17;;;34.65;;
77304;SDS011;66364;52.622;7.746;2023-04-29T01:03:25;40.90;;;36.50;;
77304;SDS011;66364;52.622;7.746;2023-04-29T01:05:28;42.25;;;34.67;;
77304;SDS011;66364;52.622;7.746;2023-04-29T01:07:33;40.80;;;35.90;;
77304;SDS011;66364;52.622;7.746;2023-04-29T01:11:48;39.27;;;35.17;;
77304;SDS011;66364;52.622;7.746;2023-04-29T01:13:58;36.90;;;32.30;;
77304;SDS011;66364;52.622;7.746;2023-04-29T01:16:01;39.42;;;34.92;;
77304;SDS011;66364;52.622;7.746;2023-04-29T01:20:17;38.28;;;32.20;;
77304;SDS011;66364;52.622;7.746;2023-04-29T01:22:20;40.45;;;34.60;;
77304;SDS011;66364;52.622;7.746;2023-04-29T01:24:21;38.75;;;32.15;;
77304;SDS011;66364;52.622;7.746;2023-04-29T01:26:22;37.10;;;32.85;;
77304;SDS011;66364;52.622;7.746;2023-04-29T01:33:31;37.95;;;32.55;;
77304;SDS011;66364;52.622;7.746;2023-04-29T01:41:06;39.30;;;33.83;;
77304;SDS011;66364;52.622;7.746;2023-04-29T01:42:58;38.67;;;33.83;;
77304;SDS011;66364;52.622;7.746;2023-04-29T01:45:02;35.85;;;31.93;;
77304;SDS011;66364;52.622;7.746;2023-04-29T01:47:06;35.33;;;31.82;;
77304;SDS011;66364;52.622;7.746;2023-04-29T01:49:09;37.88;;;32.60;;
77304;SDS011;66364;52.622;7.746;2023-04-29T01:51:12;41.33;;;36.98;;
77304;SDS011;66364;52.622;7.746;2023-04-29T01:53:13;40.92;;;35.80;;
77304;SDS011;66364;52.622;7.746;2023-04-29T01:55:14;37.27;;;33.30;;
77304;SDS011;66364;52.622;7.746;2023-04-29T01:57:16;40.40;;;36.10;;
77304;SDS011;66364;52.622;7.746;2023-04-29T01:59:16;41.40;;;36.80;;
77304;SDS011;66364;52.622;7.746;2023-04-29T02:01:17;39.70;;;35.70;;
77304;SDS011;66364;52.622;7.746;2023-04-29T02:03:18;40.97;;;36.67;;
77304;SDS011;66364;52.622;7.746;2023-04-29T02:05:19;42.67;;;35.47;;
77304;SDS011;66364;52.622;7.746;2023-04-29T02:07:22;38.85;;;34.88;;
77304;SDS011;66364;52.622;7.746;2023-04-29T02:09:23;38.73;;;34.70;;
77304;SDS011;66364;52.622;7.746;2023-04-29T02:11:24;40.10;;;35.78;;
77304;SDS011;66364;52.622;7.746;2023-04-29T02:13:25;39.07;;;34.97;;
77304;SDS011;66364;52.622;7.746;2023-04-29T02:15:26;41.70;;;37.23;;
77304;SDS011;66364;52.622;7.746;2023-04-29T02:17:27;45.08;;;40.03;;
77304;SDS011;66364;52.622;7.746;2023-04-29T02:19:28;43.00;;;38.42;;
77304;SDS011;66364;52.622;7.746;2023-04-29T02:21:31;43.25;;;38.75;;
77304;SDS011;66364;52.622;7.746;2023-04-29T02:23:34;43.63;;;37.57;;
77304;SDS011;66364;52.622;7.746;2023-04-29T02:25:35;45.98;;;40.30;;
77304;SDS011;66364;52.622;7.746;2023-04-29T02:27:37;41.00;;;36.60;;
77304;SDS011;66364;52.622;7.746;2023-04-29T02:29:38;43.57;;;38.60;;
77304;SDS011;66364;52.622;7.746;2023-04-29T02:31:39;43.90;;;39.53;;
77304;SDS011;66364;52.622;7.746;2023-04-29T02:33:41;42.98;;;38.38;;
77304;SDS011;66364;52.622;7.746;2023-04-29T02:35:41;41.53;;;37.27;;
77304;SDS011;66364;52.622;7.746;2023-04-29T02:37:42;39.13;;;35.10;;
77304;SDS011;66364;52.622;7.746;2023-04-29T02:39:45;41.20;;;36.88;;
77304;SDS011;66364;52.622;7.746;2023-04-29T02:41:46;39.38;;;35.23;;
77304;SDS011;66364;52.622;7.746;2023-04-29T02:43:51;38.25;;;34.43;;
77304;SDS011;66364;52.622;7.746;2023-04-29T02:45:53;39.33;;;35.33;;
77304;SDS011;66364;52.622;7.746;2023-04-29T02:47:54;39.60;;;35.45;;
77304;SDS011;66364;52.622;7.746;2023-04-29T02:49:55;38.67;;;34.57;;
77304;SDS011;66364;52.622;7.746;2023-04-29T02:51:56;37.57;;;33.47;;
77304;SDS011;66364;52.622;7.746;2023-04-29T02:53:57;40.85;;;36.65;;
77304;SDS011;66364;52.622;7.746;2023-04-29T02:56:04;39.57;;;35.50;;
77304;SDS011;66364;52.622;7.746;2023-04-29T02:58:05;40.78;;;36.40;;
77304;SDS011;66364;52.622;7.746;2023-04-29T03:00:06;43.43;;;38.63;;
77304;SDS011;66364;52.622;7.746;2023-04-29T03:02:08;43.28;;;38.60;;
77304;SDS011;66364;52.622;7.746;2023-04-29T03:04:08;43.77;;;39.17;;
77304;SDS011;66364;52.622;7.746;2023-04-29T03:06:09;45.43;;;38.63;;
77304;SDS011;66364;52.622;7.746;2023-04-29T03:08:10;43.37;;;38.53;;
77304;SDS011;66364;52.622;7.746;2023-04-29T03:10:11;47.20;;;39.27;;
77304;SDS011;66364;52.622;7.746;2023-04-29T03:12:13;40.78;;;36.38;;
77304;SDS011;66364;52.622;7.746;2023-04-29T03:14:14;44.23;;;39.23;;
77304;SDS011;66364;52.622;7.746;2023-04-29T03:16:15;43.53;;;38.90;;
77304;SDS011;66364;52.622;7.746;2023-04-29T03:18:16;43.17;;;38.67;;
77304;SDS011;66364;52.622;7.746;2023-04-29T03:20:17;43.58;;;38.60;;
77304;SDS011;66364;52.622;7.746;2023-04-29T03:22:18;46.50;;;41.45;;
77304;SDS011;66364;52.622;7.746;2023-04-29T03:24:19;44.43;;;39.70;;
77304;SDS011;66364;52.622;7.746;2023-04-29T03:26:20;41.40;;;36.60;;
77304;SDS011;66364;52.622;7.746;2023-04-29T03:28:21;43.10;;;37.50;;
77304;SDS011;66364;52.622;7.746;2023-04-29T03:30:23;45.12;;;38.13;;
77304;SDS011;66364;52.622;7.746;2023-04-29T03:32:23;49.10;;;40.07;;
77304;SDS011;66364;52.622;7.746;2023-04-29T03:34:24;44.90;;;39.97;;
77304;SDS011;66364;52.622;7.746;2023-04-29T03:36:25;43.10;;;38.53;;
77304;SDS011;66364;52.622;7.746;2023-04-29T03:38:26;44.20;;;39.30;;
77304;SDS011;66364;52.622;7.746;2023-04-29T03:40:27;48.70;;;39.53;;
77304;SDS011;66364;52.622;7.746;2023-04-29T03:42:28;44.35;;;39.03;;
77304;SDS011;66364;52.622;7.746;2023-04-29T03:44:29;43.87;;;39.17;;
77304;SDS011;66364;52.622;7.746;2023-04-29T03:46:30;52.55;;;39.73;;
77304;SDS011;66364;52.622;7.746;2023-04-29T03:48:32;51.05;;;40.08;;
77304;SDS011;66364;52.622;7.746;2023-04-29T03:50:34;46.25;;;38.80;;
77304;SDS011;66364;52.622;7.746;2023-04-29T03:52:37;43.15;;;37.03;;
77304;SDS011;66364;52.622;7.746;2023-04-29T03:54:38;43.25;;;37.58;;
77304;SDS011;66364;52.622;7.746;2023-04-29T03:56:39;43.95;;;38.38;;
77304;SDS011;66364;52.622;7.746;2023-04-29T03:58:40;43.90;;;38.83;;
77304;SDS011;66364;52.622;7.746;2023-04-29T04:00:41;46.88;;;39.78;;
77304;SDS011;66364;52.622;7.746;2023-04-29T04:02:42;51.63;;;42.73;;
77304;SDS011;66364;52.622;7.746;2023-04-29T04:04:43;46.60;;;39.30;;
77304;SDS011;66364;52.622;7.746;2023-04-29T04:06:44;46.07;;;40.17;;
77304;SDS011;66364;52.622;7.746;2023-04-29T04:08:45;45.97;;;39.43;;
77304;SDS011;66364;52.622;7.746;2023-04-29T04:10:46;55.43;;;41.40;;
77304;SDS011;66364;52.622;7.746;2023-04-29T04:12:47;46.48;;;39.78;;
77304;SDS011;66364;52.622;7.746;2023-04-29T04:14:48;45.97;;;38.27;;
77304;SDS011;66364;52.622;7.746;2023-04-29T04:16:54;47.08;;;38.90;;
77304;SDS011;66364;52.622;7.746;2023-04-29T04:18:55;46.90;;;39.05;;
77304;SDS011;66364;52.622;7.746;2023-04-29T04:20:56;47.48;;;39.88;;
77304;SDS011;66364;52.622;7.746;2023-04-29T04:22:57;53.13;;;42.43;;
77304;SDS011;66364;52.622;7.746;2023-04-29T04:24:58;49.27;;;40.83;;
77304;SDS011;66364;52.622;7.746;2023-04-29T04:26:59;48.33;;;40.10;;
77304;SDS011;66364;52.622;7.746;2023-04-29T04:28:59;50.00;;;41.10;;
77304;SDS011;66364;52.622;7.746;2023-04-29T04:31:00;46.57;;;40.43;;
77304;SDS011;66364;52.622;7.746;2023-04-29T04:33:01;49.83;;;40.07;;
77304;SDS011;66364;52.622;7.746;2023-04-29T04:35:02;53.80;;;43.67;;
77304;SDS011;66364;52.622;7.746;2023-04-29T04:37:04;52.83;;;40.10;;
77304;SDS011;66364;52.622;7.746;2023-04-29T04:39:05;49.25;;;40.45;;
77304;SDS011;66364;52.622;7.746;2023-04-29T04:41:06;51.80;;;43.40;;
77304;SDS011;66364;52.622;7.746;2023-04-29T04:43:07;48.87;;;40.35;;
77304;SDS011;66364;52.622;7.746;2023-04-29T04:45:08;48.85;;;40.65;;
77304;SDS011;66364;52.622;7.746;2023-04-29T04:47:10;50.23;;;40.70;;
77304;SDS011;66364;52.622;7.746;2023-04-29T04:49:10;50.47;;;41.30;;
77304;SDS011;66364;52.622;7.746;2023-04-29T04:51:12;47.37;;;38.67;;
77304;SDS011;66364;52.622;7.746;2023-04-29T04:53:14;50.43;;;39.50;;
77304;SDS011;66364;52.622;7.746;2023-04-29T04:55:15;43.33;;;37.33;;
77304;SDS011;66364;52.622;7.746;2023-04-29T04:57:16;54.07;;;38.20;;
77304;SDS011;66364;52.622;7.746;2023-04-29T04:59:16;47.13;;;41.03;;
77304;SDS011;66364;52.622;7.746;2023-04-29T05:01:17;46.80;;;36.97;;
77304;SDS011;66364;52.622;7.746;2023-04-29T05:03:18;54.00;;;40.40;;
77304;SDS011;66364;52.622;7.746;2023-04-29T05:05:19;47.60;;;39.20;;
77304;SDS011;66364;52.622;7.746;2023-04-29T05:07:20;45.33;;;39.10;;
77304;SDS011;66364;52.622;7.746;2023-04-29T05:09:22;45.25;;;38.20;;
77304;SDS011;66364;52.622;7.746;2023-04-29T05:11:23;50.38;;;37.85;;
77304;SDS011;66364;52.622;7.746;2023-04-29T05:13:25;43.90;;;37.17;;
77304;SDS011;66364;52.622;7.746;2023-04-29T05:15:26;46.48;;;36.15;;
77304;SDS011;66364;52.622;7.746;2023-04-29T05:17:27;47.23;;;38.53;;
77304;SDS011;66364;52.622;7.746;2023-04-29T05:19:29;42.30;;;35.10;;
77304;SDS011;66364;52.622;7.746;2023-04-29T05:21:30;43.25;;;36.20;;
77304;SDS011;66364;52.622;7.746;2023-04-29T05:23:32;39.80;;;34.80;;
77304;SDS011;66364;52.622;7.746;2023-04-29T05:25:32;41.45;;;35.15;;
77304;SDS011;66364;52.622;7.746;2023-04-29T05:27:34;45.15;;;36.50;;
77304;SDS011;66364;52.622;7.746;2023-04-29T05:29:35;40.10;;;35.33;;
77304;SDS011;66364;52.622;7.746;2023-04-29T05:31:36;40.27;;;35.27;;
77304;SDS011;66364;52.622;7.746;2023-04-29T05:33:37;41.83;;;34.53;;
77304;SDS011;66364;52.622;7.746;2023-04-29T05:35:38;47.13;;;37.43;;
77304;SDS011;66364;52.622;7.746;2023-04-29T05:37:39;44.43;;;37.87;;
77304;SDS011;66364;52.622;7.746;2023-04-29T05:39:40;48.33;;;37.93;;
77304;SDS011;66364;52.622;7.746;2023-04-29T05:41:44;49.00;;;38.30;;
77304;SDS011;66364;52.622;7.746;2023-04-29T05:43:45;48.42;;;38.05;;
77304;SDS011;66364;52.622;7.746;2023-04-29T05:45:52;48.40;;;38.17;;
77304;SDS011;66364;52.622;7.746;2023-04-29T05:47:53;43.98;;;35.60;;
77304;SDS011;66364;52.622;7.746;2023-04-29T05:49:55;43.68;;;36.85;;
77304;SDS011;66364;52.622;7.746;2023-04-29T05:51:56;44.50;;;36.10;;
77304;SDS011;66364;52.622;7.746;2023-04-29T05:53:57;37.75;;;31.87;;
77304;SDS011;66364;52.622;7.746;2023-04-29T05:55:58;42.20;;;32.90;;
77304;SDS011;66364;52.622;7.746;2023-04-29T05:57:59;48.10;;;34.60;;
77304;SDS011;66364;52.622;7.746;2023-04-29T06:00:00;41.42;;;36.93;;
77304;SDS011;66364;52.622;7.746;2023-04-29T06:02:01;47.78;;;35.70;;
77304;SDS011;66364;52.622;7.746;2023-04-29T06:04:04;48.02;;;35.25;;
77304;SDS011;66364;52.622;7.746;2023-04-29T06:06:05;43.08;;;35.68;;
77304;SDS011;66364;52.622;7.746;2023-04-29T06:08:06;39.50;;;32.93;;
77304;SDS011;66364;52.622;7.746;2023-04-29T06:10:07;40.63;;;32.93;;
77304;SDS011;66364;52.622;7.746;2023-04-29T06:12:08;39.53;;;34.92;;
77304;SDS011;66364;52.622;7.746;2023-04-29T06:14:10;40.00;;;32.03;;
77304;SDS011;66364;52.622;7.746;2023-04-29T06:16:11;46.13;;;33.20;;
77304;SDS011;66364;52.622;7.746;2023-04-29T06:18:13;38.67;;;31.27;;
77304;SDS011;66364;52.622;7.746;2023-04-29T06:20:17;38.53;;;33.50;;
77304;SDS011;66364;52.622;7.746;2023-04-29T06:22:18;42.65;;;33.10;;
77304;SDS011;66364;52.622;7.746;2023-04-29T06:24:19;40.83;;;32.15;;
77304;SDS011;66364;52.622;7.746;2023-04-29T06:26:20;39.45;;;32.45;;
77304;SDS011;66364;52.622;7.746;2023-04-29T06:28:21;46.47;;;33.57;;
77304;SDS011;66364;52.622;7.746;2023-04-29T06:30:22;41.57;;;31.93;;
77304;SDS011;66364;52.622;7.746;2023-04-29T06:32:24;38.30;;;31.20;;
77304;SDS011;66364;52.622;7.746;2023-04-29T06:34:25;36.00;;;29.10;;
77304;SDS011;66364;52.622;7.746;2023-04-29T06:36:26;39.23;;;31.27;;
77304;SDS011;66364;52.622;7.746;2023-04-29T06:38:27;39.88;;;32.65;;
77304;SDS011;66364;52.622;7.746;2023-04-29T06:40:28;33.67;;;29.97;;
77304;SDS011;66364;52.622;7.746;2023-04-29T06:42:29;40.03;;;29.17;;
77304;SDS011;66364;52.622;7.746;2023-04-29T06:44:36;32.40;;;28.70;;
77304;SDS011;66364;52.622;7.746;2023-04-29T06:46:37;36.17;;;30.60;;
77304;SDS011;66364;52.622;7.746;2023-04-29T06:48:38;35.10;;;29.00;;
77304;SDS011;66364;52.622;7.746;2023-04-29T06:50:47;32.03;;;26.50;;
77304;SDS011;66364;52.622;7.746;2023-04-29T06:52:44;31.60;;;28.17;;
77304;SDS011;66364;52.622;7.746;2023-04-29T06:54:45;34.90;;;28.30;;
77304;SDS011;66364;52.622;7.746;2023-04-29T06:56:46;33.17;;;28.57;;
77304;SDS011;66364;52.622;7.746;2023-04-29T06:58:47;30.20;;;26.52;;
77304;SDS011;66364;52.622;7.746;2023-04-29T07:00:48;32.60;;;26.07;;
77304;SDS011;66364;52.622;7.746;2023-04-29T07:02:50;27.50;;;24.57;;
77304;SDS011;66364;52.622;7.746;2023-04-29T07:04:51;27.30;;;24.43;;
77304;SDS011;66364;52.622;7.746;2023-04-29T07:06:52;27.70;;;23.07;;
77304;SDS011;66364;52.622;7.746;2023-04-29T07:08:53;27.62;;;23.52;;
77304;SDS011;66364;52.622;7.746;2023-04-29T07:13:00;29.92;;;25.17;;
77304;SDS011;66364;52.622;7.746;2023-04-29T07:15:03;24.12;;;21.80;;
77304;SDS011;66364;52.622;7.746;2023-04-29T07:17:10;27.45;;;22.87;;
77304;SDS011;66364;52.622;7.746;2023-04-29T07:19:11;28.57;;;23.77;;
77304;SDS011;66364;52.622;7.746;2023-04-29T07:21:13;27.02;;;23.57;;
77304;SDS011;66364;52.622;7.746;2023-04-29T07:23:15;28.70;;;22.37;;
77304;SDS011;66364;52.622;7.746;2023-04-29T07:25:16;26.60;;;22.85;;
77304;SDS011;66364;52.622;7.746;2023-04-29T07:27:23;26.05;;;20.12;;
77304;SDS011;66364;52.622;7.746;2023-04-29T07:29:24;25.10;;;22.22;;
77304;SDS011;66364;52.622;7.746;2023-04-29T07:31:27;28.60;;;22.03;;
77304;SDS011;66364;52.622;7.746;2023-04-29T07:33:28;25.68;;;22.93;;
77304;SDS011;66364;52.622;7.746;2023-04-29T07:35:29;23.30;;;20.77;;
77304;SDS011;66364;52.622;7.746;2023-04-29T07:37:30;23.60;;;20.82;;
77304;SDS011;66364;52.622;7.746;2023-04-29T07:39:30;27.77;;;21.70;;
77304;SDS011;66364;52.622;7.746;2023-04-29T07:41:49;23.20;;;19.20;;
77304;SDS011;66364;52.622;7.746;2023-04-29T07:43:50;28.15;;;20.65;;
77304;SDS011;66364;52.622;7.746;2023-04-29T07:45:51;24.00;;;21.23;;
77304;SDS011;66364;52.622;7.746;2023-04-29T07:47:58;22.05;;;19.50;;
77304;SDS011;66364;52.622;7.746;2023-04-29T07:50:01;24.67;;;19.52;;
77304;SDS011;66364;52.622;7.746;2023-04-29T07:52:03;28.57;;;19.70;;
77304;SDS011;66364;52.622;7.746;2023-04-29T07:54:05;25.62;;;18.45;;
77304;SDS011;66364;52.622;7.746;2023-04-29T07:56:23;20.62;;;18.52;;
77304;SDS011;66364;52.622;7.746;2023-04-29T07:58:36;19.17;;;17.20;;
77304;SDS011;66364;52.622;7.746;2023-04-29T08:00:37;17.23;;;15.43;;
77304;SDS011;66364;52.622;7.746;2023-04-29T08:02:39;22.55;;;17.02;;
77304;SDS011;66364;52.622;7.746;2023-04-29T08:04:40;19.50;;;15.90;;
77304;SDS011;66364;52.622;7.746;2023-04-29T08:06:41;18.50;;;16.60;;
77304;SDS011;66364;52.622;7.746;2023-04-29T08:08:41;21.30;;;16.30;;
77304;SDS011;66364;52.622;7.746;2023-04-29T08:10:47;17.82;;;16.00;;
77304;SDS011;66364;52.622;7.746;2023-04-29T08:12:48;18.73;;;15.03;;
77304;SDS011;66364;52.622;7.746;2023-04-29T08:14:49;21.23;;;16.35;;
77304;SDS011;66364;52.622;7.746;2023-04-29T08:16:59;19.30;;;14.60;;
77304;SDS011;66364;52.622;7.746;2023-04-29T08:19:00;16.60;;;14.90;;
77304;SDS011;66364;52.622;7.746;2023-04-29T08:21:01;20.50;;;15.67;;
77304;SDS011;66364;52.622;7.746;2023-04-29T08:23:03;19.90;;;15.93;;
77304;SDS011;66364;52.622;7.746;2023-04-29T08:25:04;17.27;;;14.77;;
77304;SDS011;66364;52.622;7.746;2023-04-29T08:27:05;19.75;;;14.78;;
77304;SDS011;66364;52.622;7.746;2023-04-29T08:29:06;22.23;;;16.17;;
77304;SDS011;66364;52.622;7.746;2023-04-29T08:31:14;17.50;;;13.65;;
77304;SDS011;66364;52.622;7.746;2023-04-29T08:33:26;16.23;;;14.30;;
77304;SDS011;66364;52.622;7.746;2023-04-29T08:35:27;16.37;;;14.68;;
77304;SDS011;66364;52.622;7.746;2023-04-29T08:37:28;15.80;;;14.00;;
77304;SDS011;66364;52.622;7.746;2023-04-29T08:39:29;18.70;;;14.25;;
77304;SDS011;66364;52.622;7.746;2023-04-29T08:41:31;17.57;;;14.30;;
77304;SDS011;66364;52.622;7.746;2023-04-29T08:43:32;16.23;;;14.20;;
77304;SDS011;66364;52.622;7.746;2023-04-29T08:45:35;21.25;;;15.60;;
77304;SDS011;66364;52.622;7.746;2023-04-29T08:47:37;16.42;;;14.70;;
77304;SDS011;66364;52.622;7.746;2023-04-29T08:49:39;15.93;;;14.23;;
77304;SDS011;66364;52.622;7.746;2023-04-29T08:51:40;16.17;;;14.07;;
77304;SDS011;66364;52.622;7.746;2023-04-29T08:53:41;19.60;;;14.13;;
77304;SDS011;66364;52.622;7.746;2023-04-29T08:55:44;17.30;;;15.60;;
77304;SDS011;66364;52.622;7.746;2023-04-29T08:57:46;15.48;;;13.85;;
77304;SDS011;66364;52.622;7.746;2023-04-29T08:59:49;15.75;;;14.03;;
77304;SDS011;66364;52.622;7.746;2023-04-29T09:01:50;15.78;;;14.25;;
77304;SDS011;66364;52.622;7.746;2023-04-29T09:04:11;15.80;;;14.18;;
77304;SDS011;66364;52.622;7.746;2023-04-29T09:06:32;16.30;;;13.50;;
77304;SDS011;66364;52.622;7.746;2023-04-29T09:08:33;15.55;;;13.78;;
77304;SDS011;66364;52.622;7.746;2023-04-29T09:10:35;15.03;;;13.45;;
77304;SDS011;66364;52.622;7.746;2023-04-29T09:12:37;16.23;;;14.53;;
77304;SDS011;66364;52.622;7.746;2023-04-29T09:14:38;17.42;;;14.98;;
77304;SDS011;66364;52.622;7.746;2023-04-29T09:16:39;13.47;;;10.97;;
77304;SDS011;66364;52.622;7.746;2023-04-29T09:20:48;14.73;;;13.08;;
77304;SDS011;66364;52.622;7.746;2023-04-29T09:22:50;14.60;;;12.70;;
77304;SDS011;66364;52.622;7.746;2023-04-29T09:24:53;16.17;;;13.50;;
77304;SDS011;66364;52.622;7.746;2023-04-29T09:26:57;15.25;;;13.65;;
77304;SDS011;66364;52.622;7.746;2023-04-29T09:29:06;16.52;;;12.98;;
77304;SDS011;66364;52.622;7.746;2023-04-29T09:31:10;13.98;;;12.37;;
77304;SDS011;66364;52.622;7.746;2023-04-29T09:33:11;15.53;;;11.93;;
77304;SDS011;66364;52.622;7.746;2023-04-29T09:37:25;13.38;;;11.97;;
77304;SDS011;66364;52.622;7.746;2023-04-29T09:39:37;12.43;;;11.22;;
77304;SDS011;66364;52.622;7.746;2023-04-29T09:41:34;12.95;;;11.25;;
77304;SDS011;66364;52.622;7.746;2023-04-29T09:43:35;12.20;;;10.90;;
77304;SDS011;66364;52.622;7.746;2023-04-29T09:45:38;11.83;;;10.82;;
77304;SDS011;66364;52.622;7.746;2023-04-29T09:47:41;11.65;;;10.55;;
77304;SDS011;66364;52.622;7.746;2023-04-29T09:49:43;11.90;;;10.70;;
77304;SDS011;66364;52.622;7.746;2023-04-29T09:51:56;11.15;;;10.15;;
77304;SDS011;66364;52.622;7.746;2023-04-29T09:53:55;10.30;;;9.38;;
77304;SDS011;66364;52.622;7.746;2023-04-29T09:56:00;11.78;;;9.90;;
77304;SDS011;66364;52.622;7.746;2023-04-29T09:58:02;11.40;;;9.90;;
77304;SDS011;66364;52.622;7.746;2023-04-29T10:00:04;9.30;;;8.43;;
77304;SDS011;66364;52.622;7.746;2023-04-29T10:02:07;10.58;;;9.58;;
77304;SDS011;66364;52.622;7.746;2023-04-29T10:04:16;11.38;;;9.28;;
77304;SDS011;66364;52.622;7.746;2023-04-29T10:06:19;10.53;;;9.38;;
77304;SDS011;66364;52.622;7.746;2023-04-29T10:08:20;10.05;;;8.60;;
77304;SDS011;66364;52.622;7.746;2023-04-29T10:10:21;10.63;;;9.53;;
77304;SDS011;66364;52.622;7.746;2023-04-29T10:12:24;12.37;;;8.23;;
77304;SDS011;66364;52.622;7.746;2023-04-29T10:14:25;10.23;;;9.33;;
77304;SDS011;66364;52.622;7.746;2023-04-29T10:16:28;10.35;;;9.18;;
77304;SDS011;66364;52.622;7.746;2023-04-29T10:18:35;13.40;;;9.40;;
77304;SDS011;66364;52.622;7.746;2023-04-29T10:20:37;11.75;;;10.55;;
77304;SDS011;66364;52.622;7.746;2023-04-29T10:22:45;11.08;;;9.98;;
77304;SDS011;66364;52.622;7.746;2023-04-29T10:24:47;9.98;;;9.13;;
77304;SDS011;66364;52.622;7.746;2023-04-29T10:26:50;9.98;;;8.55;;
77304;SDS011;66364;52.622;7.746;2023-04-29T10:28:52;9.53;;;8.53;;
77304;SDS011;66364;52.622;7.746;2023-04-29T10:31:01;11.20;;;10.20;;
77304;SDS011;66364;52.622;7.746;2023-04-29T10:33:02;11.57;;;10.40;;
77304;SDS011;66364;52.622;7.746;2023-04-29T10:35:05;9.73;;;8.85;;
77304;SDS011;66364;52.622;7.746;2023-04-29T10:37:09;8.80;;;7.90;;
77304;SDS011;66364;52.622;7.746;2023-04-29T10:39:14;9.88;;;8.98;;
77304;SDS011;66364;52.622;7.746;2023-04-29T10:41:19;10.20;;;9.13;;
77304;SDS011;66364;52.622;7.746;2023-04-29T10:43:22;9.23;;;7.97;;
77304;SDS011;66364;52.622;7.746;2023-04-29T10:47:28;9.30;;;8.40;;
77304;SDS011;66364;52.622;7.746;2023-04-29T10:49:35;11.73;;;9.57;;
77304;SDS011;66364;52.622;7.746;2023-04-29T10:51:43;9.45;;;8.65;;
77304;SDS011;66364;52.622;7.746;2023-04-29T10:56:09;12.05;;;9.28;;
77304;SDS011;66364;52.622;7.746;2023-04-29T11:01:07;10.32;;;8.38;;
77304;SDS011;66364;52.622;7.746;2023-04-29T11:03:12;8.55;;;7.85;;
77304;SDS011;66364;52.622;7.746;2023-04-29T11:05:17;8.55;;;7.67;;
77304;SDS011;66364;52.622;7.746;2023-04-29T11:07:34;8.00;;;7.17;;
77304;SDS011;66364;52.622;7.746;2023-04-29T11:09:39;7.95;;;7.17;;
77304;SDS011;66364;52.622;7.746;2023-04-29T11:12:17;10.20;;;7.75;;
77304;SDS011;66364;52.622;7.746;2023-04-29T11:14:12;9.53;;;8.53;;
77304;SDS011;66364;52.622;7.746;2023-04-29T11:16:19;9.63;;;8.73;;
77304;SDS011;66364;52.622;7.746;2023-04-29T11:18:25;8.28;;;7.58;;
77304;SDS011;66364;52.622;7.746;2023-04-29T11:20:31;7.67;;;7.08;;
77304;SDS011;66364;52.622;7.746;2023-04-29T11:22:38;8.68;;;7.92;;
77304;SDS011;66364;52.622;7.746;2023-04-29T11:24:56;9.25;;;7.70;;
77304;SDS011;66364;52.622;7.746;2023-04-29T11:27:02;7.83;;;7.12;;
77304;SDS011;66364;52.622;7.746;2023-04-29T11:29:04;10.78;;;9.30;;
77304;SDS011;66364;52.622;7.746;2023-04-29T11:31:06;9.65;;;7.58;;
77304;SDS011;66364;52.622;7.746;2023-04-29T11:33:08;8.05;;;7.30;;
77304;SDS011;66364;52.622;7.746;2023-04-29T11:35:18;7.05;;;6.45;;
77304;SDS011;66364;52.622;7.746;2023-04-29T11:37:25;8.00;;;6.25;;
77304;SDS011;66364;52.622;7.746;2023-04-29T11:39:26;8.85;;;8.05;;
77304;SDS011;66364;52.622;7.746;2023-04-29T11:41:28;8.45;;;7.65;;
77304;SDS011;66364;52.622;7.746;2023-04-29T11:43:29;7.80;;;7.00;;
77304;SDS011;66364;52.622;7.746;2023-04-29T11:45:33;7.50;;;6.80;;
77304;SDS011;66364;52.622;7.746;2023-04-29T11:47:44;9.73;;;7.85;;
77304;SDS011;66364;52.622;7.746;2023-04-29T11:49:47;9.20;;;8.40;;
77304;SDS011;66364;52.622;7.746;2023-04-29T11:51:49;8.55;;;7.15;;
77304;SDS011;66364;52.622;7.746;2023-04-29T11:53:50;10.45;;;7.87;;
77304;SDS011;66364;52.622;7.746;2023-04-29T11:55:52;10.18;;;8.18;;
77304;SDS011;66364;52.622;7.746;2023-04-29T11:57:53;7.00;;;6.40;;
77304;SDS011;66364;52.622;7.746;2023-04-29T11:59:56;7.83;;;6.92;;
77304;SDS011;66364;52.622;7.746;2023-04-29T12:02:01;6.53;;;5.83;;
77304;SDS011;66364;52.622;7.746;2023-04-29T12:04:03;8.35;;;7.35;;
77304;SDS011;66364;52.622;7.746;2023-04-29T12:06:05;8.33;;;7.53;;
77304;SDS011;66364;52.622;7.746;2023-04-29T12:08:06;8.63;;;7.70;;
77304;SDS011;66364;52.622;7.746;2023-04-29T12:10:08;9.18;;;7.20;;
77304;SDS011;66364;52.622;7.746;2023-04-29T12:12:10;9.20;;;8.30;;
77304;SDS011;66364;52.622;7.746;2023-04-29T12:14:20;7.97;;;7.03;;
77304;SDS011;66364;52.622;7.746;2023-04-29T12:16:27;8.08;;;7.25;;
77304;SDS011;66364;52.622;7.746;2023-04-29T12:18:30;7.50;;;6.70;;
77304;SDS011;66364;52.622;7.746;2023-04-29T12:20:33;7.72;;;6.50;;
77304;SDS011;66364;52.622;7.746;2023-04-29T12:22:34;8.18;;;7.35;;
77304;SDS011;66364;52.622;7.746;2023-04-29T12:24:36;7.08;;;6.30;;
77304;SDS011;66364;52.622;7.746;2023-04-29T12:26:38;6.33;;;5.80;;
77304;SDS011;66364;52.622;7.746;2023-04-29T12:28:40;6.20;;;4.50;;